createdAt,value
2023-05-10T00:02:26.566Z,90.30
2023-05-10T00:04:55.907Z,90.00
2023-05-10T00:07:22.757Z,89.90
2023-05-10T00:09:49.634Z,90.10
2023-05-10T00:12:17.656Z,90.40
2023-05-10T00:14:44.594Z,90.50
2023-05-10T00:17:11.488Z,90.30
2023-05-10T00:19:40.620Z,90.40
2023-05-10T00:22:11.845Z,90.40
2023-05-10T00:24:40.844Z,90.60
2023-05-10T00:27:07.894Z,90.50
2023-05-10T00:29:34.876Z,90.80
2023-05-10T00:32:01.844Z,90.70
2023-05-10T00:34:29.249Z,90.60
2023-05-10T00:36:58.703Z,90.70
2023-05-10T00:39:25.592Z,90.50
2023-05-10T00:41:54.920Z,90.90
2023-05-10T00:44:22.151Z,90.80
2023-05-10T00:46:50.168Z,90.80
2023-05-10T00:49:17.878Z,90.80
2023-05-10T00:51:45.646Z,90.80
2023-05-10T00:54:18.869Z,90.90
2023-05-10T00:56:50.991Z,90.70
2023-05-10T00:59:18.871Z,90.90
2023-05-10T01:01:48.947Z,90.80
2023-05-10T01:04:18.389Z,90.80
2023-05-10T01:06:45.230Z,90.80
2023-05-10T01:09:12.889Z,90.90
2023-05-10T01:11:40.888Z,91.20
2023-05-10T01:14:08.545Z,91.40
2023-05-10T01:16:42.574Z,91.50
2023-05-10T01:19:18.549Z,91.50
2023-05-10T01:22:12.697Z,91.70
2023-05-10T01:25:03.494Z,91.80
2023-05-10T01:27:50.607Z,91.80
2023-05-10T01:30:28.188Z,91.70
2023-05-10T01:33:26.840Z,91.70
2023-05-10T01:35:54.444Z,91.70
2023-05-10T01:38:47.129Z,91.50
2023-05-10T01:41:28.864Z,91.90
2023-05-10T01:43:58.495Z,91.90
2023-05-10T01:46:32.399Z,91.60
2023-05-10T01:49:03.185Z,91.90
2023-05-10T01:51:38.004Z,91.70
2023-05-10T01:54:06.884Z,92.10
2023-05-10T01:56:38.726Z,92.20
2023-05-10T01:59:13.293Z,92.10
2023-05-10T02:01:41.570Z,92.40
2023-05-10T02:04:10.585Z,92.10
2023-05-10T02:06:42.247Z,92.30
2023-05-10T02:09:11.640Z,92.50
2023-05-10T02:11:44.661Z,92.50
2023-05-10T02:14:15.043Z,92.70
2023-05-10T02:16:43.186Z,92.30
2023-05-10T02:19:15.173Z,92.30
2023-05-10T02:21:43.759Z,92.90
2023-05-10T02:24:12.412Z,92.70
2023-05-10T02:26:39.960Z,92.70
2023-05-10T02:29:08.437Z,92.90
2023-05-10T02:31:36.432Z,92.80
2023-05-10T02:34:09.001Z,93.00
2023-05-10T02:36:36.520Z,93.10
2023-05-10T02:39:10.413Z,93.20
2023-05-10T02:41:38.168Z,93.10
2023-05-10T02:44:10.621Z,93.40
2023-05-10T02:46:38.615Z,93.40
2023-05-10T02:49:05.526Z,93.40
2023-05-10T02:51:35.804Z,93.20
2023-05-10T02:54:10.105Z,93.50
2023-05-10T02:56:40.899Z,93.60
2023-05-10T02:59:07.782Z,93.70
2023-05-10T03:01:34.880Z,93.50
2023-05-10T03:04:01.886Z,93.70
2023-05-10T03:06:29.612Z,93.80
2023-05-10T03:08:57.403Z,93.80
2023-05-10T03:11:41.055Z,94.10
2023-05-10T03:14:32.789Z,94.20
2023-05-10T03:17:26.807Z,94.10
2023-05-10T03:19:59.373Z,94.20
2023-05-10T03:22:40.820Z,94.30
2023-05-10T03:25:11.740Z,94.40
2023-05-10T03:27:44.826Z,94.40
2023-05-10T03:30:13.717Z,94.40
2023-05-10T03:32:40.618Z,94.80
2023-05-10T03:35:11.430Z,94.50
2023-05-10T03:37:38.499Z,94.50
2023-05-10T03:40:06.343Z,94.80
2023-05-10T03:42:37.654Z,94.70
2023-05-10T03:45:07.227Z,94.90
2023-05-10T03:47:34.163Z,94.80
2023-05-10T03:50:03.400Z,94.90
2023-05-10T03:52:30.515Z,94.90
2023-05-10T03:55:03.844Z,94.90
2023-05-10T03:57:30.622Z,94.80
2023-05-10T03:59:57.349Z,94.80
2023-05-10T04:02:24.238Z,94.90
2023-05-10T04:04:51.227Z,94.90
2023-05-10T04:07:19.041Z,95.00
2023-05-10T04:09:45.982Z,95.00
2023-05-10T04:12:15.264Z,95.00
2023-05-10T04:14:42.026Z,95.20
2023-05-10T04:17:11.456Z,95.00
2023-05-10T04:19:40.763Z,95.00
2023-05-10T04:22:07.558Z,95.20
2023-05-10T04:24:34.282Z,95.20
2023-05-10T04:27:03.377Z,95.10
2023-05-10T04:29:32.645Z,95.50
2023-05-10T04:31:59.697Z,95.10
2023-05-10T04:34:41.579Z,95.40
2023-05-10T04:37:13.198Z,95.30
2023-05-10T04:39:42.182Z,95.20
2023-05-10T04:42:09.328Z,95.20
2023-05-10T04:44:36.353Z,95.10
2023-05-10T04:47:03.866Z,95.20
2023-05-10T04:49:30.753Z,95.30
2023-05-10T04:51:57.495Z,95.20
2023-05-10T04:54:24.370Z,95.50
2023-05-10T04:56:51.155Z,95.50
2023-05-10T04:59:19.979Z,95.50
2023-05-10T05:01:46.855Z,95.60
2023-05-10T05:04:13.652Z,95.40
2023-05-10T05:06:42.837Z,95.50
2023-05-10T05:09:11.137Z,95.50
2023-05-10T05:11:44.129Z,95.50
2023-05-10T05:14:11.005Z,95.50
2023-05-10T05:16:38.391Z,95.70
2023-05-10T05:19:05.215Z,95.40
2023-05-10T05:21:33.152Z,95.30
2023-05-10T05:24:00.086Z,95.40
2023-05-10T05:26:27.808Z,95.50
2023-05-10T05:28:55.588Z,95.20
2023-05-10T05:31:22.622Z,95.60
2023-05-10T05:34:55.362Z,95.40
2023-05-10T05:37:25.380Z,95.40
2023-05-10T05:39:52.437Z,95.30
2023-05-10T05:42:19.939Z,95.80
2023-05-10T05:44:46.925Z,95.40
2023-05-10T05:47:14.195Z,95.50
2023-05-10T05:49:46.821Z,95.40
2023-05-10T05:52:13.835Z,95.40
2023-05-10T05:54:40.709Z,95.30
2023-05-10T05:57:08.434Z,95.30
2023-05-10T05:59:35.426Z,95.40
2023-05-10T06:02:02.445Z,95.40
2023-05-10T06:04:34.155Z,95.50
2023-05-10T06:07:01.116Z,95.40
2023-05-10T06:09:30.278Z,95.70
2023-05-10T06:11:57.382Z,95.40
2023-05-10T06:14:26.437Z,95.20
2023-05-10T06:16:55.724Z,95.00
2023-05-10T06:19:22.934Z,95.20
2023-05-10T06:21:51.195Z,95.00
2023-05-10T06:24:22.472Z,95.30
2023-05-10T06:26:50.934Z,94.80
2023-05-10T06:29:17.780Z,94.90
2023-05-10T06:31:44.753Z,94.80
2023-05-10T06:34:12.655Z,94.80
2023-05-10T06:36:42.125Z,94.60
2023-05-10T06:39:09.140Z,94.50
2023-05-10T06:41:38.515Z,94.40
2023-05-10T06:44:06.025Z,94.10
2023-05-10T06:46:35.469Z,94.20
2023-05-10T06:49:02.400Z,94.30
2023-05-10T06:51:29.266Z,93.90
2023-05-10T06:53:56.269Z,93.70
2023-05-10T06:56:28.054Z,93.80
2023-05-10T06:58:55.051Z,93.90
2023-05-10T07:01:21.950Z,93.90
2023-05-10T07:03:48.949Z,93.80
2023-05-10T07:06:29.485Z,93.70
2023-05-10T07:09:00.327Z,94.10
2023-05-10T07:11:28.069Z,93.80
2023-05-10T07:13:55.016Z,93.90
2023-05-10T07:16:23.124Z,93.60
2023-05-10T07:18:53.979Z,93.50
2023-05-10T07:21:21.081Z,93.50
2023-05-10T07:23:48.169Z,93.70
2023-05-10T07:26:20.783Z,93.40
2023-05-10T07:28:48.318Z,93.30
2023-05-10T07:31:15.157Z,93.30
2023-05-10T07:33:42.087Z,93.70
2023-05-10T07:36:08.988Z,93.40
2023-05-10T07:38:35.819Z,93.10
2023-05-10T07:41:02.982Z,92.90
2023-05-10T07:43:29.832Z,92.90
2023-05-10T07:45:58.560Z,92.60
2023-05-10T07:48:25.755Z,92.50
2023-05-10T07:50:52.768Z,92.50
2023-05-10T07:53:22.209Z,92.50
2023-05-10T07:55:55.455Z,92.40
2023-05-10T07:58:22.558Z,92.40
2023-05-10T08:00:50.199Z,92.20
2023-05-10T08:03:17.295Z,92.50
2023-05-10T08:05:44.374Z,92.20
2023-05-10T08:08:11.232Z,91.80
2023-05-10T08:10:40.318Z,91.80
2023-05-10T08:13:07.172Z,91.90
2023-05-10T08:15:34.107Z,91.90
2023-05-10T08:18:00.999Z,91.90
2023-05-10T08:20:28.025Z,91.40
2023-05-10T08:22:54.970Z,91.10
2023-05-10T08:25:21.807Z,90.70
2023-05-10T08:27:53.703Z,90.50
2023-05-10T08:30:20.788Z,89.40
2023-05-10T08:32:47.690Z,88.40
2023-05-10T08:35:16.945Z,87.10
2023-05-10T08:37:43.925Z,84.80
2023-05-10T08:40:13.111Z,83.40
2023-05-10T08:42:44.130Z,81.40
2023-05-10T08:45:12.505Z,77.60
2023-05-10T08:47:40.666Z,77.40
2023-05-10T08:50:08.453Z,75.70
2023-05-10T08:52:40.880Z,74.90
2023-05-10T08:55:12.906Z,73.70
2023-05-10T08:57:45.158Z,72.60
2023-05-10T09:00:15.078Z,72.50
2023-05-10T09:02:44.057Z,72.90
2023-05-10T09:05:11.579Z,72.70
2023-05-10T09:07:38.601Z,70.80
2023-05-10T09:10:09.757Z,70.80
2023-05-10T09:12:36.846Z,69.60
2023-05-10T09:15:08.120Z,68.60
2023-05-10T09:17:35.502Z,67.30
2023-05-10T09:20:08.358Z,70.00
2023-05-10T09:22:36.066Z,66.50
2023-05-10T09:25:09.550Z,67.70
2023-05-10T09:27:37.738Z,65.80
2023-05-10T09:30:10.510Z,65.90
2023-05-10T09:32:41.719Z,66.30
2023-05-10T09:35:11.921Z,65.60
2023-05-10T09:37:49.782Z,67.00
2023-05-10T09:40:21.871Z,67.10
2023-05-10T09:42:56.837Z,66.20
2023-05-10T09:45:25.987Z,64.10
2023-05-10T09:47:54.029Z,64.10
2023-05-10T09:50:22.062Z,64.50
2023-05-10T09:52:53.322Z,65.90
2023-05-10T09:55:24.230Z,67.10
2023-05-10T09:58:00.282Z,66.80
2023-05-10T10:00:28.192Z,66.90
2023-05-10T10:02:59.999Z,70.10
2023-05-10T10:05:31.149Z,69.40
2023-05-10T10:07:59.439Z,71.50
2023-05-10T10:10:32.470Z,71.10
2023-05-10T10:12:59.542Z,71.00
2023-05-10T10:15:26.852Z,70.50
2023-05-10T10:17:54.383Z,71.40
2023-05-10T10:20:23.365Z,72.30
2023-05-10T10:22:52.684Z,72.90
2023-05-10T10:25:22.879Z,73.00
2023-05-10T10:27:57.624Z,73.90
2023-05-10T10:30:39.656Z,74.00
2023-05-10T10:33:24.281Z,74.20
2023-05-10T10:35:56.207Z,75.60
2023-05-10T10:38:23.806Z,76.80
2023-05-10T10:41:27.835Z,75.40
2023-05-10T10:44:13.272Z,75.40
2023-05-10T10:47:02.400Z,76.50
2023-05-10T10:49:38.906Z,76.40
2023-05-10T10:52:30.937Z,75.90
2023-05-10T10:55:15.757Z,75.20
2023-05-10T10:57:52.744Z,75.10
2023-05-10T11:00:30.169Z,75.00
2023-05-10T11:02:58.214Z,74.40
2023-05-10T11:05:36.191Z,75.80
2023-05-10T11:08:19.815Z,76.90
2023-05-10T11:11:03.135Z,76.50
2023-05-10T11:13:44.560Z,78.10
2023-05-10T11:16:20.930Z,76.20
2023-05-10T11:19:12.418Z,75.10
2023-05-10T11:22:05.752Z,75.20
2023-05-10T11:24:32.767Z,74.50
2023-05-10T11:27:03.289Z,73.90
2023-05-10T11:29:32.613Z,75.10
2023-05-10T11:32:00.627Z,75.80
2023-05-10T11:34:30.454Z,76.70
2023-05-10T11:37:05.214Z,74.40
2023-05-10T11:39:34.668Z,74.10
2023-05-10T11:42:03.904Z,73.10
2023-05-10T11:44:32.670Z,73.10
2023-05-10T11:47:04.029Z,73.20
2023-05-10T11:49:31.203Z,72.90
2023-05-10T11:52:08.196Z,74.30
2023-05-10T11:54:36.057Z,72.50
2023-05-10T11:57:03.262Z,74.00
2023-05-10T11:59:32.916Z,74.60
2023-05-10T12:02:00.217Z,74.00
2023-05-10T12:04:28.786Z,73.60
2023-05-10T12:06:55.911Z,73.20
2023-05-10T12:09:39.570Z,73.30
2023-05-10T12:12:10.817Z,73.90
2023-05-10T12:14:39.981Z,72.10
2023-05-10T12:17:06.926Z,73.10
2023-05-10T12:19:40.640Z,72.40
2023-05-10T12:22:09.796Z,71.50
2023-05-10T12:24:39.215Z,72.30
2023-05-10T12:27:09.216Z,72.30
2023-05-10T12:29:36.665Z,73.20
2023-05-10T12:32:05.981Z,71.50
2023-05-10T12:34:39.981Z,72.00
2023-05-10T12:37:07.127Z,70.00
2023-05-10T12:39:45.367Z,70.20
2023-05-10T12:42:12.749Z,69.10
2023-05-10T12:44:40.765Z,71.20
2023-05-10T12:47:10.045Z,70.00
2023-05-10T12:49:37.130Z,70.20
2023-05-10T12:52:06.303Z,70.40
2023-05-10T12:54:35.415Z,71.10
2023-05-10T12:57:04.460Z,69.60
2023-05-10T12:59:31.452Z,71.30
2023-05-10T13:02:00.788Z,69.10
2023-05-10T13:04:30.074Z,70.40
2023-05-10T13:06:59.656Z,70.30
2023-05-10T13:09:28.002Z,71.40
2023-05-10T13:11:55.324Z,72.20
2023-05-10T13:14:25.010Z,72.20
2023-05-10T13:16:52.145Z,70.80
2023-05-10T13:19:23.731Z,71.20
2023-05-10T13:21:50.844Z,71.70
2023-05-10T13:24:20.791Z,69.80
2023-05-10T13:26:47.676Z,69.60
2023-05-10T13:29:14.599Z,69.10
2023-05-10T13:31:46.245Z,69.60
2023-05-10T13:34:13.259Z,70.60
2023-05-10T13:36:40.314Z,71.40
2023-05-10T13:39:09.965Z,71.10
2023-05-10T13:41:37.702Z,70.00
2023-05-10T13:44:04.636Z,68.90
2023-05-10T13:46:32.028Z,69.60
2023-05-10T13:49:01.260Z,68.50
2023-05-10T13:51:28.354Z,68.30
2023-05-10T13:53:55.225Z,65.80
2023-05-10T13:56:26.713Z,64.50
2023-05-10T13:58:57.920Z,62.20
2023-05-10T14:01:25.185Z,60.80
2023-05-10T14:03:52.519Z,58.80
2023-05-10T14:06:19.597Z,56.90
2023-05-10T14:08:48.750Z,57.90
2023-05-10T14:11:16.253Z,58.20
2023-05-10T14:13:46.213Z,60.00
2023-05-10T14:16:16.003Z,57.30
2023-05-10T14:18:43.045Z,54.80
2023-05-10T14:21:12.202Z,54.50
2023-05-10T14:23:41.881Z,52.50
2023-05-10T14:26:10.812Z,52.30
2023-05-10T14:28:37.712Z,53.10
2023-05-10T14:31:04.680Z,58.30
2023-05-10T14:33:31.500Z,54.20
2023-05-10T14:35:58.437Z,55.30
2023-05-10T14:38:25.272Z,53.20
2023-05-10T14:40:52.265Z,52.70
2023-05-10T14:43:19.363Z,54.20
2023-05-10T14:45:46.559Z,56.70
2023-05-10T14:48:16.434Z,57.20
2023-05-10T14:50:43.426Z,58.00
2023-05-10T14:53:13.484Z,60.50
2023-05-10T14:55:40.492Z,61.10
2023-05-10T14:58:07.381Z,60.30
2023-05-10T15:00:38.984Z,60.40
2023-05-10T15:03:09.115Z,62.20
2023-05-10T15:05:38.240Z,62.20
2023-05-10T15:08:07.375Z,61.80
2023-05-10T15:10:34.627Z,63.10
2023-05-10T15:13:06.528Z,64.40
2023-05-10T15:15:35.675Z,65.50
2023-05-10T15:18:02.592Z,68.00
2023-05-10T15:20:29.445Z,69.00
2023-05-10T15:22:56.342Z,64.70
2023-05-10T15:25:24.636Z,65.60
2023-05-10T15:27:51.557Z,64.60
2023-05-10T15:30:18.395Z,65.00
2023-05-10T15:32:45.304Z,65.00
2023-05-10T15:35:12.258Z,65.10
2023-05-10T15:37:41.930Z,65.80
2023-05-10T15:40:09.250Z,66.00
2023-05-10T15:42:36.314Z,65.60
2023-05-10T15:45:03.294Z,66.60
2023-05-10T15:47:33.830Z,66.20
2023-05-10T15:50:01.093Z,68.50
2023-05-10T15:52:28.280Z,68.10
2023-05-10T15:54:55.287Z,68.00
2023-05-10T15:57:22.161Z,71.40
2023-05-10T15:59:49.289Z,70.30
2023-05-10T16:02:19.346Z,68.60
2023-05-10T16:04:49.212Z,70.30
2023-05-10T16:07:18.911Z,71.60
2023-05-10T16:09:45.882Z,71.60
2023-05-10T16:12:12.877Z,75.20
2023-05-10T16:14:39.704Z,76.40
2023-05-10T16:17:07.806Z,75.80
2023-05-10T16:19:34.845Z,76.60
2023-05-10T16:22:04.133Z,79.30
2023-05-10T16:24:31.063Z,84.20
2023-05-10T16:26:58.040Z,86.00
2023-05-10T16:29:24.956Z,86.90
2023-05-10T16:31:51.777Z,88.40
2023-05-10T16:34:24.164Z,89.30
2023-05-10T16:36:51.678Z,90.60
2023-05-10T16:39:20.781Z,91.00
2023-05-10T16:41:47.772Z,91.60
2023-05-10T16:44:20.119Z,91.50
2023-05-10T16:46:47.872Z,91.60
2023-05-10T16:49:17.511Z,92.10
2023-05-10T16:51:44.359Z,92.40
2023-05-10T16:54:14.202Z,92.80
2023-05-10T16:56:41.377Z,93.10
2023-05-10T16:59:08.528Z,93.00
2023-05-10T17:01:35.673Z,93.40
2023-05-10T17:04:03.575Z,93.70
2023-05-10T17:06:30.482Z,93.50
2023-05-10T17:08:57.286Z,93.80
2023-05-10T17:11:26.327Z,94.00
2023-05-10T17:13:56.231Z,94.20
2023-05-10T17:16:23.377Z,94.50
2023-05-10T17:18:50.363Z,94.60
2023-05-10T17:21:19.876Z,94.90
2023-05-10T17:23:46.818Z,95.20
2023-05-10T17:26:13.586Z,95.30
2023-05-10T17:28:40.630Z,95.50
2023-05-10T17:31:09.785Z,95.70
2023-05-10T17:33:36.697Z,96.00
2023-05-10T17:36:03.780Z,96.10
2023-05-10T17:38:33.124Z,96.60
2023-05-10T17:40:59.909Z,96.60
2023-05-10T17:43:29.713Z,96.90
2023-05-10T17:45:56.559Z,97.10
2023-05-10T17:48:23.520Z,97.20
2023-05-10T17:50:52.682Z,97.70
2023-05-10T17:53:19.584Z,97.90
2023-05-10T17:55:47.015Z,98.10
2023-05-10T17:58:14.032Z,98.10
2023-05-10T18:00:40.986Z,98.30
2023-05-10T18:03:08.080Z,98.30
2023-05-10T18:05:41.092Z,98.20
2023-05-10T18:08:08.327Z,98.50
2023-05-10T18:10:36.061Z,98.80
2023-05-10T18:13:05.904Z,99.10
2023-05-10T18:15:35.202Z,99.10
2023-05-10T18:18:04.072Z,99.30
2023-05-10T18:20:31.821Z,99.30
2023-05-10T18:22:59.119Z,99.50
2023-05-10T18:25:28.669Z,99.90
2023-05-10T18:27:55.848Z,99.90
2023-05-10T18:30:22.854Z,99.90
2023-05-10T18:32:51.946Z,99.90
2023-05-10T18:35:19.230Z,99.90
2023-05-10T18:37:46.469Z,99.90
2023-05-10T18:40:14.670Z,99.90
2023-05-10T18:42:42.024Z,99.90
2023-05-10T18:45:09.254Z,99.90
2023-05-10T18:47:36.180Z,99.90
2023-05-10T18:50:05.136Z,99.90
2023-05-10T18:52:32.121Z,99.90
2023-05-10T18:54:59.093Z,99.90
2023-05-10T18:57:26.021Z,99.90
2023-05-10T18:59:52.890Z,99.90
2023-05-10T19:02:19.799Z,99.90
2023-05-10T19:04:46.814Z,99.90
2023-05-10T19:07:16.009Z,99.90
2023-05-10T19:09:45.533Z,99.90
2023-05-10T19:12:12.543Z,99.90
2023-05-10T19:14:39.434Z,99.90
2023-05-10T19:17:09.629Z,99.90
2023-05-10T19:19:39.853Z,99.90
2023-05-10T19:22:08.871Z,99.90
2023-05-10T19:24:35.717Z,99.90
2023-05-10T19:27:02.862Z,99.90
2023-05-10T19:29:29.789Z,99.90
2023-05-10T19:31:56.875Z,99.90
2023-05-10T19:34:23.950Z,99.90
2023-05-10T19:36:51.114Z,99.90
2023-05-10T19:39:20.197Z,99.90
2023-05-10T19:41:47.705Z,99.90
2023-05-10T19:44:14.926Z,99.90
2023-05-10T19:46:41.846Z,99.90
2023-05-10T19:49:11.208Z,99.90
2023-05-10T19:51:40.056Z,99.90
2023-05-10T19:54:07.154Z,99.90
2023-05-10T19:56:34.673Z,99.90
2023-05-10T19:59:03.341Z,99.90
2023-05-10T20:01:33.178Z,99.90
2023-05-10T20:04:02.549Z,99.90
2023-05-10T20:06:29.485Z,99.90
2023-05-10T20:08:58.589Z,99.90
2023-05-10T20:11:25.634Z,99.90
2023-05-10T20:13:54.751Z,99.90
2023-05-10T20:16:26.472Z,99.90
2023-05-10T20:18:54.514Z,99.90
2023-05-10T20:21:23.939Z,99.90
2023-05-10T20:23:50.923Z,99.90
2023-05-10T20:26:17.829Z,99.90
2023-05-10T20:28:44.705Z,99.90
2023-05-10T20:31:14.124Z,99.90
2023-05-10T20:33:41.067Z,99.90
2023-05-10T20:36:09.588Z,99.90
2023-05-10T20:38:36.883Z,99.90
2023-05-10T20:41:05.907Z,99.90
2023-05-10T20:43:33.057Z,99.90
2023-05-10T20:46:05.201Z,99.90
2023-05-10T20:48:34.582Z,99.90
2023-05-10T20:51:04.029Z,99.90
2023-05-10T20:53:30.995Z,99.90
2023-05-10T20:55:57.961Z,99.90
2023-05-10T20:58:24.974Z,99.90
2023-05-10T21:00:51.827Z,99.90
2023-05-10T21:03:18.709Z,99.90
2023-05-10T21:05:47.786Z,99.90
2023-05-10T21:08:19.029Z,99.90
2023-05-10T21:10:45.968Z,99.90
2023-05-10T21:13:15.419Z,99.90
2023-05-10T21:15:42.190Z,99.90
2023-05-10T21:18:11.297Z,99.90
2023-05-10T21:20:38.145Z,99.90
2023-05-10T21:23:07.214Z,99.90
2023-05-10T21:25:34.476Z,99.90
2023-05-10T21:28:01.381Z,99.90
2023-05-10T21:30:28.341Z,99.90
2023-05-10T21:32:59.461Z,99.90
2023-05-10T21:35:30.105Z,99.90
2023-05-10T21:37:57.327Z,99.90
2023-05-10T21:40:26.729Z,99.90
2023-05-10T21:42:55.713Z,99.90
2023-05-10T21:45:25.037Z,99.90
2023-05-10T21:47:52.039Z,99.90
2023-05-10T21:50:19.060Z,99.90
2023-05-10T21:52:46.106Z,99.90
2023-05-10T21:55:12.948Z,99.90
2023-05-10T21:57:41.162Z,99.90
2023-05-10T22:00:10.141Z,99.90
2023-05-10T22:02:38.686Z,99.90
2023-05-10T22:05:06.225Z,99.90
2023-05-10T22:07:33.759Z,99.90
2023-05-10T22:10:03.203Z,99.90
2023-05-10T22:12:30.067Z,99.90
2023-05-10T22:15:09.522Z,99.90
2023-05-10T22:17:40.821Z,99.90
2023-05-10T22:20:10.207Z,99.90
2023-05-10T22:22:39.104Z,99.90
2023-05-10T22:25:07.499Z,99.90
2023-05-10T22:27:37.280Z,99.90
2023-05-10T22:30:04.675Z,99.90
2023-05-10T22:32:34.169Z,99.90
2023-05-10T22:35:03.285Z,99.90
2023-05-10T22:37:30.594Z,99.90
2023-05-10T22:39:57.498Z,99.90
2023-05-10T22:42:29.058Z,99.90
2023-05-10T22:44:56.536Z,99.90
2023-05-10T22:47:23.393Z,99.90
2023-05-10T22:49:50.259Z,99.90
2023-05-10T22:52:17.039Z,99.90
2023-05-10T22:54:44.265Z,99.90
2023-05-10T22:57:16.233Z,99.90
2023-05-10T22:59:43.305Z,99.90
2023-05-10T23:02:10.499Z,99.90
2023-05-10T23:04:39.546Z,99.90
2023-05-10T23:07:08.836Z,99.90
2023-05-10T23:09:40.572Z,99.90
2023-05-10T23:12:07.495Z,99.90
2023-05-10T23:14:38.077Z,99.90
2023-05-10T23:17:07.706Z,99.90
2023-05-10T23:19:34.539Z,99.90
2023-05-10T23:22:01.354Z,99.90
2023-05-10T23:24:28.212Z,99.90
2023-05-10T23:26:57.096Z,99.90
2023-05-10T23:29:26.725Z,99.90
2023-05-10T23:31:53.610Z,99.90
2023-05-10T23:34:22.753Z,99.90
2023-05-10T23:36:49.595Z,99.90
2023-05-10T23:39:16.584Z,99.90
2023-05-10T23:41:43.428Z,99.90
2023-05-10T23:44:12.541Z,99.90
2023-05-10T23:46:39.438Z,99.90
2023-05-10T23:49:08.750Z,99.90
2023-05-10T23:51:37.760Z,99.90
2023-05-10T23:54:04.554Z,99.90
2023-05-10T23:56:31.363Z,99.90
2023-05-10T23:58:58.238Z,99.90
